Airfield :
LOGIN :

Register | Disclaimer

   EN    FR    IT 

 










Legend :    VFR   Marginal VFR   IFR   Intensive IFR   Very Intensive IFR
Visi :
Ceiling :
>= 8 km
>= 3000ft
5 to 8 km
1000 to 3000 ft
1500m to 5 km
500 to 1000 ft
800 to 1500m
200 to 500 ft
< 800m
< 200 ft
Symbols :   Thunderstorms  Fog  Heavy snow  Heavy precipitations  Wind > 20 kt
SIGMETs :     Misc.  Thunderstorms  Icing  Turbulence  Mountain Waves  Volcanic Ashes







- Airport Elevation : 1708 ft
- IATA code : SJJ


LQSA - Sarajevo

CURRENT METAR :
  • 202200Z 26004KT 220V290 3500 BR NSC 04/04 Q1009

EXPIRED METARs :
  • 202130Z VRB02KT 3500 BR NSC 04/04 Q1009
  • 202100Z 34003KT 300V040 3500 BR NSC 04/04 Q1010 NOSIG
  • 202030Z 32003KT 290V360 3500 BR FEW010 04/04 Q1010 NOSIG
  • 202000Z VRB02KT 2500 BR NSC 05/05 Q1010 NOSIG
  • 201930Z VRB01KT 2500 BR FEW040 04/04 Q1010 NOSIG

TAF TAF LQSA
Valid from the 20 at 18:00 until the 21 at 18:00 UTC


201700Z 2018/2118 VRB02KT 3000 BR FEW010 SCT030 TX10/2112Z TN02/2106Z
PROB30
TEMPO 2018/2022 VRB12KT TSRA SCT005 FEW030CB BKN055
PROB40 2104/2107 1500 BCFG BKN004
BECMG 2107/2110 6000 NSW
No reported NOTAMs for that airfield.



MET'MAP, your aeronautical weather chart ! - Copyright ORBIFLY December 2007 - Disclaimer

ORBIFLY MET'MAP TEAM :

Programming & Development : Alexandra Zaïnal
Concept & Development : Baudouin d'Aumeries
Co-Development & Prog : Marc-Olivier Méhu
Technical & hardware support : Manuel Goepfert

Contact : metmap@orbifly.com




SOURCES & CREDITS :

   NOAA